createdAt,value
2019-05-18T00:00:30.140Z,98187.95
2019-05-18T00:05:33.483Z,98186.96
2019-05-18T00:10:36.813Z,98184.47
2019-05-18T00:15:40.125Z,98189.31
2019-05-18T00:20:43.540Z,98186.96
2019-05-18T00:25:46.874Z,98187.65
2019-05-18T00:30:50.182Z,98180.94
2019-05-18T00:35:53.483Z,98182.76
2019-05-18T00:40:56.771Z,98175.46
2019-05-18T00:46:00.086Z,98182.90
2019-05-18T00:51:03.414Z,98181.19
2019-05-18T00:56:06.746Z,98186.05
2019-05-18T01:01:10.130Z,98186.59
2019-05-18T01:06:13.436Z,98179.83
2019-05-18T01:11:16.731Z,98179.83
2019-05-18T01:16:20.056Z,98179.83
2019-05-18T01:21:23.411Z,98183.59
2019-05-18T01:26:26.746Z,98196.08
2019-05-18T01:31:30.086Z,98195.25
2019-05-18T01:36:33.427Z,98201.19
2019-05-18T01:41:36.735Z,98190.66
2019-05-18T01:46:40.037Z,98194.42
2019-05-18T01:51:43.344Z,98199.23
2019-05-18T01:56:46.705Z,98190.36
2019-05-18T02:01:50.035Z,98193.81
2019-05-18T02:06:53.622Z,98189.47
2019-05-18T02:11:56.958Z,98191.41
2019-05-18T02:17:00.290Z,98183.06
2019-05-18T02:22:03.639Z,98178.69
2019-05-18T02:27:06.960Z,98174.94
2019-05-18T02:32:10.669Z,98169.22
2019-05-18T02:37:14.009Z,98167.03
2019-05-18T02:42:17.346Z,98171.09
2019-05-18T02:47:20.677Z,98172.14
2019-05-18T02:52:24.006Z,98160.26
2019-05-18T02:57:27.322Z,98157.77
2019-05-18T03:02:30.643Z,98153.27
2019-05-18T03:07:33.990Z,98147.23
2019-05-18T03:12:37.327Z,98149.95
2019-05-18T03:17:40.666Z,98149.95
2019-05-18T03:22:43.989Z,98154.31
2019-05-18T03:27:47.315Z,98150.25
2019-05-18T03:32:50.647Z,98147.55
2019-05-18T03:37:54.160Z,98145.41
2019-05-18T03:42:57.521Z,98141.30
2019-05-18T03:48:00.859Z,98138.89
2019-05-18T03:53:04.171Z,98134.53
2019-05-18T03:58:07.464Z,98136.66
2019-05-18T04:03:10.779Z,98142.34
2019-05-18T04:08:14.069Z,98138.28
2019-05-18T04:13:17.385Z,98140.77
2019-05-18T04:18:20.737Z,98135.05
2019-05-18T04:23:24.074Z,98133.12
2019-05-18T04:28:27.391Z,98127.98
2019-05-18T04:33:30.722Z,98128.75
2019-05-18T04:38:34.035Z,98133.64
2019-05-18T04:43:37.345Z,98119.58
2019-05-18T04:48:40.665Z,98120.41
2019-05-18T04:53:43.998Z,98120.66
2019-05-18T04:58:47.317Z,98121.72
2019-05-18T05:03:50.642Z,98113.15
2019-05-18T05:08:53.995Z,98105.90
2019-05-18T05:13:57.352Z,98099.95
2019-05-18T05:19:00.654Z,98102.14
2019-05-18T05:24:03.971Z,98098.95
2019-05-18T05:29:07.294Z,98088.99
2019-05-18T05:34:10.599Z,98089.65
2019-05-18T05:39:14.073Z,98094.67
2019-05-18T05:44:18.793Z,98096.03
2019-05-18T05:49:22.105Z,98102.50
2019-05-18T05:54:25.425Z,98089.89
2019-05-18T05:59:28.756Z,98091.17
2019-05-18T06:04:33.149Z,98080.20
2019-05-18T06:09:36.492Z,98079.45
2019-05-18T06:14:39.795Z,98079.16
2019-05-18T06:19:43.215Z,98075.88
